Time,TemperatureF,DewpointF,PressureIn,WindDirection,WindDirectionDegrees,WindSpeedMPH,WindSpeedGustMPH,Humidity,HourlyPrecipIn,Conditions,Clouds,dailyrainin,SolarRadiationWatts/m^2,SoftwareType,DateUTC
2013-09-26 03:42:00,51.0,45.0,-100.00,ESE,108,5.0,10.0,79,-99.99,,,0.00,0.000000,,2013-09-26 07:42:00,
2013-09-26 03:53:00,51.0,45.0,-100.00,ESE,108,5.0,10.0,79,-99.99,,,0.00,0.000000,,2013-09-26 07:53:00,
2013-09-26 04:03:00,51.0,45.0,-100.00,ESE,108,5.0,10.0,79,-99.99,,,0.00,0.000000,,2013-09-26 08:03:00,
2013-09-26 06:42:00,47.0,42.0,-100.00,SE,124,3.0,7.0,82,-99.99,,,0.00,0.000000,,2013-09-26 10:42:00,
2013-09-26 06:53:00,47.0,42.0,-100.00,SE,124,3.0,7.0,82,-99.99,,,0.00,0.000000,,2013-09-26 10:53:00,
2013-09-26 07:02:00,47.0,42.0,-100.00,SE,124,3.0,7.0,82,-99.99,,,0.00,0.000000,,2013-09-26 11:02:00,
2013-09-26 07:42:00,45.0,43.0,-100.00,SE,137,2.0,4.0,91,-99.99,,,0.00,1.000000,,2013-09-26 11:42:00,
2013-09-26 07:52:00,45.0,43.0,-100.00,SE,137,2.0,4.0,91,-99.99,,,0.00,1.000000,,2013-09-26 11:52:00,
2013-09-26 08:02:00,45.0,43.0,-100.00,SE,137,2.0,4.0,91,-99.99,,,0.00,1.000000,,2013-09-26 12:02:00,
2013-09-26 12:43:00,67.0,49.0,-100.00,NE,34,3.0,7.0,53,0.00,,,0.00,686.000000,,2013-09-26 16:43:00,
2013-09-26 12:54:00,67.0,49.0,-100.00,NE,34,3.0,7.0,53,0.00,,,0.00,686.000000,,2013-09-26 16:54:00,
2013-09-26 13:04:00,67.0,49.0,-100.00,NE,34,3.0,7.0,53,0.00,,,0.00,686.000000,,2013-09-26 17:04:00,
2013-09-26 13:43:00,67.0,46.0,-100.00,North,6,4.0,9.0,47,0.00,,,0.00,687.000000,,2013-09-26 17:43:00,
2013-09-26 13:53:00,67.0,46.0,-100.00,North,6,4.0,9.0,47,0.00,,,0.00,687.000000,,2013-09-26 17:53:00,
2013-09-26 14:02:00,67.0,46.0,-100.00,North,6,4.0,9.0,47,0.00,,,0.00,687.000000,,2013-09-26 18:02:00,
2013-09-26 14:42:00,69.0,45.0,-100.00,NE,49,5.0,10.0,42,0.00,,,0.00,690.000000,,2013-09-26 18:42:00,
2013-09-26 14:52:00,69.0,45.0,-100.00,NE,49,5.0,10.0,42,0.00,,,0.00,690.000000,,2013-09-26 18:52:00,
2013-09-26 15:03:00,69.0,45.0,-100.00,NE,49,5.0,10.0,42,0.00,,,0.00,690.000000,,2013-09-26 19:03:00,
2013-09-26 15:44:00,71.0,44.0,-100.00,NNE,33,5.0,9.0,38,0.00,,,0.00,627.000000,,2013-09-26 19:44:00,
2013-09-26 15:52:00,71.0,44.0,-100.00,NNE,33,5.0,9.0,38,0.00,,,0.00,627.000000,,2013-09-26 19:52:00,
2013-09-26 16:03:00,71.0,44.0,-100.00,NNE,33,5.0,9.0,38,0.00,,,0.00,627.000000,,2013-09-26 20:03:00,
2013-09-26 16:43:00,71.0,40.0,-100.00,NE,42,4.0,10.0,33,0.00,,,0.00,521.000000,,2013-09-26 20:43:00,
2013-09-26 16:52:00,71.0,40.0,-100.00,NE,42,4.0,10.0,33,0.00,,,0.00,521.000000,,2013-09-26 20:52:00,
2013-09-26 17:02:00,71.0,40.0,-100.00,NE,42,4.0,10.0,33,0.00,,,0.00,521.000000,,2013-09-26 21:02:00,
2013-09-26 17:44:00,69.0,44.0,-100.00,NE,36,5.0,9.0,41,0.00,,,0.00,352.000000,,2013-09-26 21:44:00,
2013-09-26 17:54:00,69.0,44.0,-100.00,NE,36,5.0,9.0,41,0.00,,,0.00,352.000000,,2013-09-26 21:54:00,
2013-09-26 18:04:00,69.0,44.0,-100.00,NE,36,5.0,9.0,41,0.00,,,0.00,352.000000,,2013-09-26 22:04:00,
2013-09-26 18:43:00,67.0,47.0,-100.00,ENE,58,3.0,10.0,49,0.00,,,0.00,168.000000,,2013-09-26 22:43:00,
2013-09-26 18:54:00,67.0,47.0,-100.00,ENE,58,3.0,10.0,49,0.00,,,0.00,168.000000,,2013-09-26 22:54:00,
2013-09-26 19:03:00,67.0,47.0,-100.00,ENE,58,3.0,10.0,49,0.00,,,0.00,168.000000,,2013-09-26 23:03:00,
2013-09-26 19:43:00,60.0,47.0,-100.00,NNE,12,0.0,6.0,63,0.00,,,0.00,17.000000,,2013-09-26 23:43:00,
2013-09-26 19:53:00,60.0,47.0,-100.00,NNE,12,0.0,6.0,63,0.00,,,0.00,17.000000,,2013-09-26 23:53:00,
2013-09-26 20:02:00,60.0,47.0,-100.00,NNE,12,0.0,6.0,63,0.00,,,0.00,17.000000,,2013-09-27 00:02:00,
2013-09-26 20:43:00,57.0,48.0,-100.00,East,96,3.0,7.0,72,0.00,,,0.00,1.000000,,2013-09-27 00:43:00,
2013-09-26 20:52:00,57.0,48.0,-100.00,East,96,3.0,7.0,72,0.00,,,0.00,1.000000,,2013-09-27 00:52:00,
2013-09-26 21:01:00,57.0,48.0,-100.00,East,96,3.0,7.0,72,0.00,,,0.00,1.000000,,2013-09-27 01:01:00,
2013-09-26 21:42:00,56.0,48.0,-100.00,ENE,67,5.0,10.0,74,0.00,,,0.00,0.000000,,2013-09-27 01:42:00,
2013-09-26 21:52:00,56.0,48.0,-100.00,ENE,67,5.0,10.0,74,0.00,,,0.00,0.000000,,2013-09-27 01:52:00,
2013-09-26 22:02:00,56.0,48.0,-100.00,ENE,67,5.0,10.0,74,0.00,,,0.00,0.000000,,2013-09-27 02:02:00,
2013-09-26 22:43:00,55.0,48.0,-100.00,East,83,4.0,10.0,76,0.00,,,0.00,0.000000,,2013-09-27 02:43:00,
2013-09-26 22:53:00,55.0,48.0,-100.00,East,83,4.0,10.0,76,0.00,,,0.00,0.000000,,2013-09-27 02:53:00,
2013-09-26 23:02:00,55.0,48.0,-100.00,East,83,4.0,10.0,76,0.00,,,0.00,0.000000,,2013-09-27 03:02:00,
2013-09-26 23:45:00,54.0,47.0,-100.00,East,82,4.0,9.0,78,0.00,,,0.00,0.000000,,2013-09-27 03:45:00,
2013-09-26 23:55:00,54.0,47.0,-100.00,East,82,4.0,9.0,78,0.00,,,0.00,0.000000,,2013-09-27 03:55:00,